createdAt,value
2019-01-12T00:00:40.338Z,99.99
2019-01-12T00:01:40.321Z,99.99
2019-01-12T00:02:40.302Z,99.99
2019-01-12T00:03:40.297Z,99.99
2019-01-12T00:04:40.281Z,99.99
2019-01-12T00:05:40.284Z,99.99
2019-01-12T00:06:40.261Z,99.99
2019-01-12T00:07:40.255Z,99.99
2019-01-12T00:08:40.236Z,99.99
2019-01-12T00:09:40.231Z,99.99
2019-01-12T00:10:40.241Z,99.99
2019-01-12T00:11:40.202Z,99.99
2019-01-12T00:12:40.191Z,99.99
2019-01-12T00:13:40.180Z,99.99
2019-01-12T00:14:40.169Z,99.99
2019-01-12T00:15:40.180Z,99.99
2019-01-12T00:16:40.149Z,99.99
2019-01-12T00:17:40.137Z,99.99
2019-01-12T00:18:40.155Z,99.99
2019-01-12T00:19:40.116Z,99.99
2019-01-12T00:20:40.105Z,99.99
2019-01-12T00:21:40.121Z,99.99
2019-01-12T00:22:40.081Z,99.99
2019-01-12T00:23:40.072Z,99.99
2019-01-12T00:24:40.057Z,99.99
2019-01-12T00:25:40.051Z,99.99
2019-01-12T00:26:40.049Z,99.99
2019-01-12T00:27:40.025Z,99.99
2019-01-12T00:28:40.014Z,99.99
2019-01-12T00:29:40.006Z,99.99
2019-01-12T00:30:39.992Z,99.99
2019-01-12T00:31:39.998Z,99.99
2019-01-12T00:32:39.971Z,99.99
2019-01-12T00:33:39.966Z,99.99
2019-01-12T00:34:39.947Z,99.99
2019-01-12T00:35:39.938Z,99.99
2019-01-12T00:36:39.938Z,99.99
2019-01-12T00:37:39.921Z,99.99
2019-01-12T00:38:39.901Z,99.99
2019-01-12T00:39:39.891Z,99.99
2019-01-12T00:40:39.880Z,99.99
2019-01-12T00:41:39.886Z,99.99
2019-01-12T00:42:39.868Z,99.99
2019-01-12T00:43:39.854Z,99.99
2019-01-12T00:44:39.837Z,99.99
2019-01-12T00:45:39.823Z,99.99
2019-01-12T00:46:39.829Z,99.99
2019-01-12T00:47:39.806Z,99.99
2019-01-12T00:48:39.797Z,99.99
2019-01-12T00:49:39.781Z,99.99
2019-01-12T00:50:39.772Z,99.99
2019-01-12T00:51:39.826Z,99.99
2019-01-12T00:52:39.746Z,99.99
2019-01-12T00:53:39.739Z,99.99
2019-01-12T00:54:39.727Z,99.99
2019-01-12T00:55:39.710Z,99.99
2019-01-12T00:56:39.729Z,99.99
2019-01-12T00:57:39.689Z,99.99
2019-01-12T00:58:39.679Z,99.99
2019-01-12T00:59:39.667Z,99.99
2019-01-12T01:00:39.656Z,99.99
2019-01-12T01:01:39.646Z,99.99
2019-01-12T01:02:39.645Z,99.99
2019-01-12T01:03:39.625Z,99.99
2019-01-12T01:04:39.626Z,99.99
2019-01-12T01:05:39.601Z,99.99
2019-01-12T01:06:39.588Z,99.99
2019-01-12T01:07:39.587Z,99.99
2019-01-12T01:08:39.566Z,99.99
2019-01-12T01:09:39.557Z,99.99
2019-01-12T01:10:39.558Z,99.99
2019-01-12T01:11:39.539Z,99.99
2019-01-12T01:12:39.544Z,99.99
2019-01-12T01:13:39.510Z,99.99
2019-01-12T01:14:39.500Z,99.99
2019-01-12T01:15:39.489Z,99.99
2019-01-12T01:16:39.476Z,99.99
2019-01-12T01:17:39.479Z,99.99
2019-01-12T01:18:39.455Z,99.99
2019-01-12T01:19:39.448Z,99.99
2019-01-12T01:20:39.432Z,99.99
2019-01-12T01:21:39.425Z,99.99
2019-01-12T01:22:39.421Z,99.99
2019-01-12T01:23:39.407Z,99.99
2019-01-12T01:24:45.585Z,99.99
2019-01-12T01:25:40.377Z,99.99
2019-01-12T01:26:39.366Z,99.99
2019-01-12T01:27:39.371Z,99.99
2019-01-12T01:28:39.352Z,99.99
2019-01-12T01:29:39.336Z,99.99
2019-01-12T01:30:39.321Z,99.99
2019-01-12T01:31:39.314Z,99.99
2019-01-12T01:32:39.312Z,99.99
2019-01-12T01:33:39.289Z,99.99
2019-01-12T01:34:39.281Z,99.99
2019-01-12T01:35:39.267Z,99.99
2019-01-12T01:36:39.259Z,99.99
2019-01-12T01:37:39.257Z,99.99
2019-01-12T01:38:39.239Z,99.99
2019-01-12T01:39:39.223Z,99.99
2019-01-12T01:40:39.212Z,99.99
2019-01-12T01:41:39.200Z,99.99
2019-01-12T01:42:39.210Z,99.99
2019-01-12T01:43:39.188Z,99.99
2019-01-12T01:44:39.167Z,99.99
2019-01-12T01:45:39.155Z,99.99
2019-01-12T01:46:39.146Z,99.99
2019-01-12T01:47:39.148Z,99.99
2019-01-12T01:48:39.122Z,99.99
2019-01-12T01:49:39.115Z,99.99
2019-01-12T01:50:39.100Z,99.99
2019-01-12T01:51:39.090Z,99.99
2019-01-12T01:52:39.089Z,99.99
2019-01-12T01:53:39.070Z,99.99
2019-01-12T01:54:39.056Z,99.99
2019-01-12T01:55:39.045Z,99.99
2019-01-12T01:56:39.034Z,99.99
2019-01-12T01:57:39.048Z,99.99
2019-01-12T01:58:39.013Z,99.99
2019-01-12T01:59:39.001Z,99.99
2019-01-12T02:00:38.988Z,99.99
2019-01-12T02:01:38.980Z,99.99
2019-01-12T02:02:38.969Z,99.99
2019-01-12T02:03:38.973Z,99.99
2019-01-12T02:04:38.947Z,99.99
2019-01-12T02:05:38.936Z,99.99
2019-01-12T02:06:38.938Z,99.99
2019-01-12T02:07:38.912Z,99.99
2019-01-12T02:08:38.918Z,99.99
2019-01-12T02:09:38.891Z,99.99
2019-01-12T02:10:38.886Z,99.99
2019-01-12T02:11:38.907Z,99.99
2019-01-12T02:12:38.856Z,99.99
2019-01-12T02:13:38.913Z,99.99
2019-01-12T02:14:38.838Z,99.99
2019-01-12T02:15:38.823Z,99.99
2019-01-12T02:16:38.825Z,99.99
2019-01-12T02:17:38.813Z,99.99
2019-01-12T02:18:38.808Z,99.99
2019-01-12T02:19:38.780Z,99.99
2019-01-12T02:20:38.768Z,99.99
2019-01-12T02:21:38.760Z,99.99
2019-01-12T02:22:38.759Z,99.99
2019-01-12T02:23:38.746Z,99.99
2019-01-12T02:24:38.733Z,99.99
2019-01-12T02:25:38.713Z,99.99
2019-01-12T02:26:38.702Z,99.99
2019-01-12T02:27:38.704Z,99.99
2019-01-12T02:28:38.701Z,99.99
2019-01-12T02:29:38.681Z,99.99
2019-01-12T02:30:38.662Z,99.99
2019-01-12T02:31:38.648Z,99.99
2019-01-12T02:32:38.637Z,99.99
2019-01-12T02:33:38.644Z,99.99
2019-01-12T02:34:38.615Z,99.99
2019-01-12T02:35:38.620Z,99.99
2019-01-12T02:36:38.599Z,99.99
2019-01-12T02:37:38.581Z,99.99
2019-01-12T02:38:38.574Z,99.99
2019-01-12T02:39:38.575Z,99.99
2019-01-12T02:40:38.559Z,99.99
2019-01-12T02:41:38.542Z,99.99
2019-01-12T02:42:38.525Z,99.99
2019-01-12T02:43:38.514Z,99.99
2019-01-12T02:44:38.516Z,99.99
2019-01-12T02:45:38.498Z,99.99
2019-01-12T02:46:38.481Z,99.99
2019-01-12T02:47:38.483Z,99.99
2019-01-12T02:48:38.460Z,99.99
2019-01-12T02:49:38.457Z,99.99
2019-01-12T02:50:38.445Z,99.99
2019-01-12T02:51:38.434Z,99.99
2019-01-12T02:52:38.420Z,99.99
2019-01-12T02:53:38.404Z,99.99
2019-01-12T02:54:38.406Z,99.99
2019-01-12T02:55:38.387Z,99.99
2019-01-12T02:56:38.377Z,99.99
2019-01-12T02:57:38.363Z,99.99
2019-01-12T02:58:38.353Z,99.99
2019-01-12T02:59:38.359Z,99.99
2019-01-12T03:00:38.326Z,99.99
2019-01-12T03:01:38.314Z,99.99
2019-01-12T03:02:38.304Z,99.99
2019-01-12T03:03:38.305Z,99.99
2019-01-12T03:04:38.294Z,99.99
2019-01-12T03:05:38.272Z,99.99
2019-01-12T03:06:38.261Z,99.99
2019-01-12T03:07:38.248Z,99.99
2019-01-12T03:08:38.242Z,99.99
2019-01-12T03:09:38.240Z,99.99
2019-01-12T03:10:38.221Z,99.99
2019-01-12T03:11:38.206Z,99.99
2019-01-12T03:12:38.200Z,99.99
2019-01-12T03:13:38.184Z,99.99
2019-01-12T03:14:38.199Z,99.99
2019-01-12T03:15:38.233Z,99.99
2019-01-12T03:16:38.154Z,99.99
2019-01-12T03:17:38.143Z,99.99
2019-01-12T03:18:38.142Z,99.99
2019-01-12T03:19:38.116Z,99.99
2019-01-12T03:20:38.122Z,99.99
2019-01-12T03:21:38.095Z,99.99
2019-01-12T03:22:38.086Z,99.99
2019-01-12T03:23:38.073Z,99.99
2019-01-12T03:24:38.070Z,99.99
2019-01-12T03:25:38.064Z,99.99
2019-01-12T03:26:38.046Z,99.99
2019-01-12T03:27:38.029Z,99.99
2019-01-12T03:28:38.019Z,99.99
2019-01-12T03:29:38.007Z,99.99
2019-01-12T03:30:38.009Z,99.99
2019-01-12T03:31:37.986Z,99.99
2019-01-12T03:32:37.981Z,99.99
2019-01-12T03:33:37.961Z,99.99
2019-01-12T03:34:37.950Z,99.99
2019-01-12T03:35:37.978Z,99.99
2019-01-12T03:36:37.932Z,99.99
2019-01-12T03:37:37.964Z,99.99
2019-01-12T03:38:37.919Z,99.99
2019-01-12T03:39:37.896Z,99.99
2019-01-12T03:40:37.923Z,99.99
2019-01-12T03:41:37.873Z,99.99
2019-01-12T03:42:37.867Z,99.99
2019-01-12T03:43:37.854Z,99.99
2019-01-12T03:44:37.840Z,99.99
2019-01-12T03:45:37.846Z,99.99
2019-01-12T03:46:37.818Z,99.99
2019-01-12T03:47:37.807Z,99.99
2019-01-12T03:48:37.876Z,99.99
2019-01-12T03:49:37.790Z,99.99
2019-01-12T03:50:37.803Z,99.99
2019-01-12T03:51:37.763Z,99.99
2019-01-12T03:52:37.752Z,99.99
2019-01-12T03:53:37.741Z,99.99
2019-01-12T03:54:37.728Z,99.99
2019-01-12T03:55:37.718Z,99.99
2019-01-12T03:56:37.719Z,99.99
2019-01-12T03:57:37.697Z,99.99
2019-01-12T03:58:37.687Z,99.99
2019-01-12T03:59:37.680Z,99.99
2019-01-12T04:00:37.663Z,99.99
2019-01-12T04:01:37.673Z,99.99
2019-01-12T04:02:37.647Z,99.99
2019-01-12T04:03:37.629Z,99.99
2019-01-12T04:04:38.019Z,99.99
2019-01-12T04:05:37.610Z,99.99
2019-01-12T04:06:37.611Z,99.99
2019-01-12T04:07:37.587Z,99.99
2019-01-12T04:08:37.585Z,99.99
2019-01-12T04:09:37.565Z,99.99
2019-01-12T04:10:37.557Z,99.99
2019-01-12T04:11:37.551Z,99.99
2019-01-12T04:12:37.533Z,99.99
2019-01-12T04:13:37.520Z,99.99
2019-01-12T04:14:37.520Z,99.99
2019-01-12T04:15:37.494Z,99.99
2019-01-12T04:16:37.500Z,99.99
2019-01-12T04:17:37.479Z,99.99
2019-01-12T04:18:37.466Z,99.99
2019-01-12T04:19:37.456Z,99.99
2019-01-12T04:20:37.449Z,99.99
2019-01-12T04:21:37.443Z,99.99
2019-01-12T04:22:37.421Z,99.99
2019-01-12T04:23:37.408Z,99.99
2019-01-12T04:24:37.398Z,99.99
2019-01-12T04:25:37.402Z,99.99
2019-01-12T04:26:37.405Z,99.99
2019-01-12T04:27:37.369Z,99.99
2019-01-12T04:28:37.352Z,99.99
2019-01-12T04:29:37.344Z,99.99
2019-01-12T04:30:37.334Z,99.99
2019-01-12T04:31:37.342Z,99.99
2019-01-12T04:32:37.308Z,99.99
2019-01-12T04:33:37.302Z,99.99
2019-01-12T04:34:37.290Z,99.99
2019-01-12T04:35:37.276Z,99.99
2019-01-12T04:36:37.265Z,99.99
2019-01-12T04:37:37.265Z,99.99
2019-01-12T04:38:37.244Z,99.99
2019-01-12T04:39:37.248Z,99.99
2019-01-12T04:40:37.226Z,99.99
2019-01-12T04:41:37.209Z,99.99
2019-01-12T04:42:37.212Z,99.99
2019-01-12T04:43:37.189Z,99.99
2019-01-12T04:44:37.174Z,99.99
2019-01-12T04:45:37.165Z,99.99
2019-01-12T04:46:37.154Z,99.99
2019-01-12T04:47:37.158Z,99.99
2019-01-12T04:48:37.133Z,99.99
2019-01-12T04:49:37.128Z,99.99
2019-01-12T04:50:37.108Z,99.99
2019-01-12T04:51:37.112Z,99.99
2019-01-12T04:52:37.099Z,99.99
2019-01-12T04:53:37.078Z,99.99
2019-01-12T04:54:37.065Z,99.99
2019-01-12T04:55:41.431Z,99.99
2019-01-12T04:56:37.041Z,99.99
2019-01-12T04:57:37.043Z,99.99
2019-01-12T04:58:37.020Z,99.99
2019-01-12T04:59:37.007Z,99.99
2019-01-12T05:00:36.999Z,99.99
2019-01-12T05:01:37.005Z,99.99
2019-01-12T05:02:37.006Z,99.99
2019-01-12T05:03:36.965Z,99.99
2019-01-12T05:04:36.952Z,99.99
2019-01-12T05:05:36.944Z,99.99
2019-01-12T05:06:36.934Z,99.99
2019-01-12T05:07:36.937Z,99.99
2019-01-12T05:08:36.922Z,99.99
2019-01-12T05:09:36.899Z,99.99
2019-01-12T05:10:36.889Z,99.99
2019-01-12T05:11:36.877Z,99.99
2019-01-12T05:12:36.869Z,99.99
2019-01-12T05:13:36.866Z,99.99
2019-01-12T05:14:36.844Z,99.99
2019-01-12T05:15:36.833Z,99.99
2019-01-12T05:16:36.821Z,99.99
2019-01-12T05:17:36.809Z,99.99
2019-01-12T05:18:36.820Z,99.99
2019-01-12T05:19:36.789Z,99.99
2019-01-12T05:20:36.776Z,99.99
2019-01-12T05:21:36.764Z,99.99
2019-01-12T05:22:36.754Z,99.99
2019-01-12T05:23:36.753Z,99.99
2019-01-12T05:24:36.734Z,99.99
2019-01-12T05:25:36.729Z,99.99
2019-01-12T05:26:36.716Z,99.99
2019-01-12T05:27:36.699Z,99.99
2019-01-12T05:28:36.706Z,99.99
2019-01-12T05:29:36.682Z,99.99
2019-01-12T05:30:36.669Z,99.99
2019-01-12T05:31:36.660Z,99.99
2019-01-12T05:32:36.641Z,99.99
2019-01-12T05:33:36.654Z,99.99
2019-01-12T05:34:36.620Z,99.99
2019-01-12T05:35:36.612Z,99.99
2019-01-12T05:36:36.615Z,99.99
2019-01-12T05:37:36.588Z,99.99
2019-01-12T05:38:36.588Z,99.99
2019-01-12T05:39:36.565Z,99.99
2019-01-12T05:40:36.554Z,99.99
2019-01-12T05:41:36.544Z,99.99
2019-01-12T05:42:36.544Z,99.99
2019-01-12T05:43:36.531Z,99.99
2019-01-12T05:44:36.514Z,99.99
2019-01-12T05:45:36.507Z,99.99
2019-01-12T05:46:36.488Z,99.99
2019-01-12T05:47:36.480Z,99.99
2019-01-12T05:48:36.491Z,99.99
2019-01-12T05:49:36.453Z,99.99
2019-01-12T05:50:36.442Z,99.99
2019-01-12T05:51:36.431Z,99.99
2019-01-12T05:52:36.422Z,99.99
2019-01-12T05:53:36.417Z,99.99
2019-01-12T05:54:36.425Z,99.99
2019-01-12T05:55:36.388Z,99.99
2019-01-12T05:56:36.377Z,99.99
2019-01-12T05:57:36.363Z,99.99
2019-01-12T05:58:36.357Z,99.99
2019-01-12T05:59:36.354Z,99.99
2019-01-12T06:00:36.332Z,99.99
2019-01-12T06:01:36.320Z,99.99
2019-01-12T06:02:36.311Z,99.99
2019-01-12T06:03:36.299Z,99.99
2019-01-12T06:04:36.304Z,99.99
2019-01-12T06:05:36.276Z,99.99
2019-01-12T06:06:36.265Z,99.99
2019-01-12T06:07:36.254Z,99.99
2019-01-12T06:08:36.241Z,99.99
2019-01-12T06:09:36.244Z,99.99
2019-01-12T06:10:36.221Z,99.99
2019-01-12T06:11:36.222Z,99.99
2019-01-12T06:12:36.202Z,99.99
2019-01-12T06:13:36.188Z,99.99
2019-01-12T06:14:36.193Z,99.99
2019-01-12T06:15:36.166Z,99.99
2019-01-12T06:16:36.160Z,99.99
2019-01-12T06:17:36.157Z,99.99
2019-01-12T06:18:36.130Z,99.99
2019-01-12T06:19:36.129Z,99.99
2019-01-12T06:20:36.112Z,99.99
2019-01-12T06:21:36.110Z,99.99
2019-01-12T06:22:36.089Z,99.99
2019-01-12T06:23:36.079Z,99.99
2019-01-12T06:24:36.083Z,99.99
2019-01-12T06:25:36.055Z,99.99
2019-01-12T06:26:36.042Z,99.99
2019-01-12T06:27:36.031Z,99.99
2019-01-12T06:28:36.023Z,99.99
2019-01-12T06:29:36.027Z,99.99
2019-01-12T06:30:36.002Z,99.99
2019-01-12T06:31:35.993Z,99.99
2019-01-12T06:32:35.979Z,99.99
2019-01-12T06:33:35.970Z,99.99
2019-01-12T06:34:35.968Z,99.99
2019-01-12T06:35:35.949Z,99.99
2019-01-12T06:36:35.932Z,99.99
2019-01-12T06:37:35.923Z,99.99
2019-01-12T06:38:35.914Z,99.99
2019-01-12T06:39:35.951Z,99.99
2019-01-12T06:40:35.891Z,99.99
2019-01-12T06:41:35.882Z,99.99
2019-01-12T06:42:35.867Z,99.99
2019-01-12T06:43:35.857Z,99.99
2019-01-12T06:44:35.845Z,99.99
2019-01-12T06:45:35.845Z,99.99
2019-01-12T06:46:35.825Z,99.99
2019-01-12T06:47:35.818Z,99.99
2019-01-12T06:48:35.803Z,99.99
2019-01-12T06:49:35.793Z,99.99
2019-01-12T06:50:35.789Z,99.99
2019-01-12T06:51:35.768Z,99.99
2019-01-12T06:52:35.760Z,99.99
2019-01-12T06:53:35.744Z,99.99
2019-01-12T06:54:35.737Z,99.99
2019-01-12T06:55:35.740Z,99.99
2019-01-12T06:56:35.715Z,99.99
2019-01-12T06:57:35.708Z,99.99
2019-01-12T06:58:35.694Z,99.99
2019-01-12T06:59:35.698Z,99.99
2019-01-12T07:00:35.681Z,99.99
2019-01-12T07:01:35.656Z,99.99
2019-01-12T07:02:35.645Z,99.99
2019-01-12T07:03:35.637Z,99.99
2019-01-12T07:04:35.625Z,99.99
2019-01-12T07:05:35.625Z,99.99
2019-01-12T07:06:35.602Z,99.99
2019-01-12T07:07:35.591Z,99.99
2019-01-12T07:08:35.578Z,99.99
2019-01-12T07:09:35.569Z,99.99
2019-01-12T07:10:35.575Z,99.99
2019-01-12T07:11:35.990Z,99.99
2019-01-12T07:12:35.535Z,99.99
2019-01-12T07:13:35.525Z,99.99
2019-01-12T07:14:35.520Z,99.99
2019-01-12T07:15:35.515Z,99.99
2019-01-12T07:16:35.495Z,99.99
2019-01-12T07:17:35.480Z,99.99
2019-01-12T07:18:35.470Z,99.99
2019-01-12T07:19:35.458Z,99.99
2019-01-12T07:20:35.457Z,99.99
2019-01-12T07:21:35.442Z,99.99
2019-01-12T07:22:35.425Z,99.99
2019-01-12T07:23:35.417Z,99.99
2019-01-12T07:24:35.403Z,99.99
2019-01-12T07:25:35.418Z,99.99
2019-01-12T07:26:35.386Z,99.99
2019-01-12T07:27:35.386Z,99.99
2019-01-12T07:28:35.363Z,99.99
2019-01-12T07:29:35.398Z,99.99
2019-01-12T07:30:35.341Z,99.99
2019-01-12T07:31:35.356Z,99.99
2019-01-12T07:32:35.315Z,99.99
2019-01-12T07:33:35.307Z,99.99
2019-01-12T07:34:35.300Z,99.99
2019-01-12T07:35:35.282Z,99.99
2019-01-12T07:36:35.281Z,99.99
2019-01-12T07:37:35.275Z,99.99
2019-01-12T07:38:35.265Z,99.99
2019-01-12T07:39:35.239Z,99.85
2019-01-12T07:40:35.233Z,99.85
2019-01-12T07:41:35.234Z,99.74
2019-01-12T07:42:35.204Z,99.12
2019-01-12T07:43:35.194Z,99.12
2019-01-12T07:44:35.184Z,99.02
2019-01-12T07:45:35.206Z,98.91
2019-01-12T07:46:35.185Z,98.91
2019-01-12T07:47:35.149Z,98.91
2019-01-12T07:48:35.137Z,99.02
2019-01-12T07:49:35.148Z,99.22
2019-01-12T07:50:35.125Z,99.22
2019-01-12T07:51:35.118Z,99.54
2019-01-12T07:52:35.093Z,99.38
2019-01-12T07:53:35.083Z,99.74
2019-01-12T07:54:35.072Z,99.74
2019-01-12T07:55:35.063Z,99.18
2019-01-12T07:56:35.066Z,98.97
2019-01-12T07:57:35.040Z,99.18
2019-01-12T07:58:35.030Z,99.07
2019-01-12T07:59:35.023Z,99.12
2019-01-12T08:00:35.011Z,99.43
2019-01-12T08:01:35.011Z,99.07
2019-01-12T08:02:34.983Z,99.49
2019-01-12T08:03:34.976Z,99.18
2019-01-12T08:04:34.962Z,98.97
2019-01-12T08:05:34.963Z,99.07
2019-01-12T08:06:34.951Z,99.03
2019-01-12T08:07:34.948Z,99.28
2019-01-12T08:08:34.919Z,98.86
2019-01-12T08:09:34.918Z,99.03
2019-01-12T08:10:34.899Z,98.97
2019-01-12T08:11:34.930Z,98.76
2019-01-12T08:12:34.874Z,99.03
2019-01-12T08:13:34.863Z,99.13
2019-01-12T08:14:34.855Z,98.97
2019-01-12T08:15:34.841Z,99.24
2019-01-12T08:16:34.844Z,99.13
2019-01-12T08:17:34.823Z,99.13
2019-01-12T08:18:34.808Z,99.34
2019-01-12T08:19:34.801Z,99.24
2019-01-12T08:20:34.787Z,99.18
2019-01-12T08:21:34.785Z,99.03
2019-01-12T08:22:34.766Z,99.13
2019-01-12T08:23:34.752Z,99.44
2019-01-12T08:24:34.741Z,99.65
2019-01-12T08:25:34.730Z,99.55
2019-01-12T08:26:34.736Z,98.99
2019-01-12T08:27:34.710Z,98.72
2019-01-12T08:28:34.700Z,98.99
2019-01-12T08:29:34.690Z,99.19
2019-01-12T08:30:34.678Z,99.40
2019-01-12T08:31:34.681Z,98.57
2019-01-12T08:32:34.652Z,98.68
2019-01-12T08:33:34.647Z,98.78
2019-01-12T08:34:34.633Z,98.68
2019-01-12T08:35:34.625Z,98.05
2019-01-12T08:36:34.738Z,98.68
2019-01-12T08:37:34.598Z,98.68
2019-01-12T08:38:34.588Z,98.11
2019-01-12T08:39:34.586Z,97.74
2019-01-12T08:40:34.565Z,97.74
2019-01-12T08:41:34.559Z,98.00
2019-01-12T08:42:34.560Z,98.11
2019-01-12T08:43:34.531Z,98.21
2019-01-12T08:44:34.522Z,98.00
2019-01-12T08:45:34.514Z,98.21
2019-01-12T08:46:34.498Z,98.00
2019-01-12T08:47:34.502Z,98.00
2019-01-12T08:48:34.474Z,98.00
2019-01-12T08:49:34.465Z,98.00
2019-01-12T08:50:34.454Z,98.00
2019-01-12T08:51:34.461Z,98.21
2019-01-12T08:52:34.457Z,97.96
2019-01-12T08:53:34.423Z,98.07
2019-01-12T08:54:34.413Z,97.65
2019-01-12T08:55:34.398Z,98.11
2019-01-12T08:56:38.280Z,98.27
2019-01-12T08:57:34.392Z,97.86
2019-01-12T08:58:34.364Z,98.07
2019-01-12T08:59:34.355Z,97.96
2019-01-12T09:00:34.344Z,98.17
2019-01-12T09:01:34.335Z,97.96
2019-01-12T09:02:34.342Z,97.86
2019-01-12T09:03:34.312Z,97.55
2019-01-12T09:04:34.302Z,97.91
2019-01-12T09:05:34.290Z,97.39
2019-01-12T09:06:34.324Z,97.91
2019-01-12T09:07:34.284Z,97.81
2019-01-12T09:08:34.256Z,97.44
2019-01-12T09:09:34.243Z,97.29
2019-01-12T09:10:34.245Z,97.71
2019-01-12T09:11:34.221Z,96.78
2019-01-12T09:12:34.211Z,96.47
2019-01-12T09:13:34.213Z,96.98
2019-01-12T09:14:34.188Z,97.09
2019-01-12T09:15:34.194Z,96.67
2019-01-12T09:16:34.178Z,96.26
2019-01-12T09:17:34.167Z,96.47
2019-01-12T09:18:34.156Z,96.47
2019-01-12T09:19:34.141Z,96.05
2019-01-12T09:20:34.128Z,96.01
2019-01-12T09:21:34.138Z,95.80
2019-01-12T09:22:34.099Z,96.47
2019-01-12T09:23:34.099Z,96.21
2019-01-12T09:24:34.077Z,96.11
2019-01-12T09:25:34.073Z,95.90
2019-01-12T09:26:34.070Z,96.11
2019-01-12T09:27:34.068Z,96.01
2019-01-12T09:28:34.049Z,96.01
2019-01-12T09:29:34.025Z,96.21
2019-01-12T09:30:34.013Z,95.59
2019-01-12T09:31:34.007Z,95.03
2019-01-12T09:32:34.006Z,94.93
2019-01-12T09:33:34.000Z,94.45
2019-01-12T09:34:33.990Z,94.20
2019-01-12T09:35:33.961Z,94.31
2019-01-12T09:36:33.946Z,94.41
2019-01-12T09:37:33.936Z,93.62
2019-01-12T09:38:33.947Z,93.99
2019-01-12T09:39:33.913Z,94.41
2019-01-12T09:40:33.902Z,94.62
2019-01-12T09:41:33.893Z,94.82
2019-01-12T09:42:33.884Z,94.93
2019-01-12T09:43:33.886Z,94.51
2019-01-12T09:44:33.871Z,94.20
2019-01-12T09:45:33.860Z,94.41
2019-01-12T09:46:33.836Z,94.41
2019-01-12T09:47:33.825Z,93.79
2019-01-12T09:48:33.853Z,93.89
2019-01-12T09:49:33.805Z,94.26
2019-01-12T09:50:33.792Z,93.54
2019-01-12T09:51:33.783Z,94.26
2019-01-12T09:52:33.771Z,94.47
2019-01-12T09:53:33.773Z,93.85
2019-01-12T09:54:33.769Z,93.54
2019-01-12T09:55:33.746Z,92.81
2019-01-12T09:56:33.751Z,92.81
2019-01-12T09:57:33.716Z,92.61
2019-01-12T09:58:33.706Z,92.91
2019-01-12T09:59:33.706Z,92.50
2019-01-12T10:00:33.685Z,92.50
2019-01-12T10:01:33.672Z,91.67
2019-01-12T10:02:33.661Z,92.71
2019-01-12T10:03:33.651Z,92.76
2019-01-12T10:04:33.649Z,91.88
2019-01-12T10:05:33.629Z,92.85
2019-01-12T10:06:33.617Z,92.61
2019-01-12T10:07:33.610Z,92.96
2019-01-12T10:08:33.594Z,93.02
2019-01-12T10:09:33.597Z,92.85
2019-01-12T10:10:33.575Z,92.30
2019-01-12T10:11:33.562Z,92.13
2019-01-12T10:12:33.562Z,92.96
2019-01-12T10:13:33.555Z,92.24
2019-01-12T10:14:33.543Z,92.55
2019-01-12T10:15:33.520Z,92.96
2019-01-12T10:16:33.509Z,93.16
2019-01-12T10:17:33.505Z,93.83
2019-01-12T10:18:33.490Z,94.10
2019-01-12T10:19:33.488Z,93.52
2019-01-12T10:20:33.463Z,93.93
2019-01-12T10:21:33.452Z,93.62
2019-01-12T10:22:33.438Z,94.04
2019-01-12T10:23:33.431Z,93.83
2019-01-12T10:24:33.430Z,94.04
2019-01-12T10:25:33.418Z,93.83
2019-01-12T10:26:33.397Z,92.49
2019-01-12T10:27:33.392Z,92.74
2019-01-12T10:28:33.375Z,93.93
2019-01-12T10:29:33.375Z,93.52
2019-01-12T10:30:33.351Z,92.63
2019-01-12T10:31:33.350Z,92.69
2019-01-12T10:32:33.331Z,93.00
2019-01-12T10:33:33.331Z,93.15
2019-01-12T10:34:33.323Z,92.84
2019-01-12T10:35:33.300Z,93.15
2019-01-12T10:36:33.289Z,92.94
2019-01-12T10:37:33.279Z,92.94
2019-01-12T10:38:33.265Z,92.68
2019-01-12T10:39:33.272Z,93.98
2019-01-12T10:40:33.245Z,93.77
2019-01-12T10:41:33.241Z,93.46
2019-01-12T10:42:33.222Z,93.98
2019-01-12T10:43:33.221Z,93.98
2019-01-12T10:44:33.223Z,93.29
2019-01-12T10:45:33.191Z,92.98
2019-01-12T10:46:33.177Z,93.56
2019-01-12T10:47:33.168Z,93.98
2019-01-12T10:48:33.161Z,94.43
2019-01-12T10:49:33.155Z,93.40
2019-01-12T10:50:33.153Z,93.25
2019-01-12T10:51:33.137Z,92.98
2019-01-12T10:52:33.112Z,94.02
2019-01-12T10:53:33.103Z,94.33
2019-01-12T10:54:33.096Z,94.29
2019-01-12T10:55:33.094Z,93.60
2019-01-12T10:56:33.069Z,93.77
2019-01-12T10:57:33.057Z,93.87
2019-01-12T10:58:33.045Z,93.87
2019-01-12T10:59:33.034Z,93.46
2019-01-12T11:00:33.040Z,94.23
2019-01-12T11:01:33.021Z,94.91
2019-01-12T11:02:33.025Z,94.49
2019-01-12T11:03:32.998Z,94.39
2019-01-12T11:04:32.983Z,94.54
2019-01-12T11:05:32.982Z,94.39
2019-01-12T11:06:32.964Z,94.08
2019-01-12T11:07:32.957Z,94.74
2019-01-12T11:08:32.938Z,94.54
2019-01-12T11:09:32.931Z,94.95
2019-01-12T11:10:32.931Z,95.16
2019-01-12T11:11:32.905Z,95.06
2019-01-12T11:12:32.892Z,95.22
2019-01-12T11:13:32.883Z,95.06
2019-01-12T11:14:32.872Z,94.95
2019-01-12T11:15:32.885Z,94.74
2019-01-12T11:16:32.851Z,95.16
2019-01-12T11:17:32.860Z,94.95
2019-01-12T11:18:32.826Z,94.74
2019-01-12T11:19:32.817Z,95.06
2019-01-12T11:20:32.858Z,95.06
2019-01-12T11:21:32.793Z,94.85
2019-01-12T11:22:32.859Z,94.95
2019-01-12T11:23:32.790Z,93.91
2019-01-12T11:24:32.805Z,93.81
2019-01-12T11:25:33.450Z,94.02
2019-01-12T11:26:32.785Z,94.54
2019-01-12T11:27:32.735Z,94.95
2019-01-12T11:28:32.721Z,94.43
2019-01-12T11:29:32.743Z,94.33
2019-01-12T11:30:32.705Z,94.64
2019-01-12T11:31:32.688Z,95.06
2019-01-12T11:32:32.700Z,94.54
2019-01-12T11:33:32.662Z,94.33
2019-01-12T11:34:32.650Z,94.58
2019-01-12T11:35:32.666Z,94.85
2019-01-12T11:36:32.673Z,94.43
2019-01-12T11:37:32.618Z,94.23
2019-01-12T11:38:32.628Z,94.95
2019-01-12T11:39:32.600Z,94.95
2019-01-12T11:40:32.612Z,95.20
2019-01-12T11:41:32.583Z,95.62
2019-01-12T11:42:32.577Z,95.00
2019-01-12T11:43:32.568Z,95.51
2019-01-12T11:44:32.555Z,94.85
2019-01-12T11:45:32.540Z,95.06
2019-01-12T11:46:32.537Z,94.95
2019-01-12T11:47:32.507Z,94.95
2019-01-12T11:48:32.501Z,94.89
2019-01-12T11:49:32.498Z,94.89
2019-01-12T11:50:32.473Z,95.10
2019-01-12T11:51:32.499Z,95.41
2019-01-12T11:52:32.453Z,95.31
2019-01-12T11:53:32.483Z,95.36
2019-01-12T11:54:32.429Z,95.87
2019-01-12T11:55:32.427Z,96.45
2019-01-12T11:56:32.417Z,95.67
2019-01-12T11:57:32.404Z,95.72
2019-01-12T11:58:32.413Z,96.34
2019-01-12T11:59:32.453Z,96.19
2019-01-12T12:00:32.374Z,96.24
2019-01-12T12:01:32.386Z,96.14
2019-01-12T12:02:37.665Z,96.14
2019-01-12T12:03:33.343Z,96.14
2019-01-12T12:04:33.275Z,95.93
2019-01-12T12:05:32.306Z,96.14
2019-01-12T12:06:32.310Z,96.34
2019-01-12T12:07:32.298Z,96.45
2019-01-12T12:08:32.289Z,96.66
2019-01-12T12:09:32.292Z,96.86
2019-01-12T12:10:32.251Z,96.24
2019-01-12T12:11:32.295Z,97.07
2019-01-12T12:12:32.235Z,96.55
2019-01-12T12:13:32.282Z,96.86
2019-01-12T12:14:32.211Z,97.90
2019-01-12T12:15:32.199Z,97.38
2019-01-12T12:16:32.196Z,97.49
2019-01-12T12:17:32.190Z,98.11
2019-01-12T12:18:32.163Z,98.05
2019-01-12T12:19:32.160Z,97.90
2019-01-12T12:20:32.153Z,98.16
2019-01-12T12:21:32.131Z,97.90
2019-01-12T12:22:32.189Z,98.26
2019-01-12T12:23:32.113Z,98.05
2019-01-12T12:24:32.102Z,97.95
2019-01-12T12:25:32.086Z,97.95
2019-01-12T12:26:32.080Z,98.16
2019-01-12T12:27:32.096Z,97.95
2019-01-12T12:28:32.059Z,98.11
2019-01-12T12:29:32.057Z,97.80
2019-01-12T12:30:32.051Z,97.90
2019-01-12T12:31:32.020Z,98.00
2019-01-12T12:32:32.018Z,98.21
2019-01-12T12:33:32.012Z,97.74
2019-01-12T12:34:31.992Z,98.36
2019-01-12T12:35:37.658Z,98.16
2019-01-12T12:36:33.000Z,98.21
2019-01-12T12:37:31.958Z,98.21
2019-01-12T12:38:31.964Z,98.21
2019-01-12T12:39:31.966Z,98.00
2019-01-12T12:40:31.924Z,98.21
2019-01-12T12:41:31.913Z,98.11
2019-01-12T12:42:31.925Z,98.21
2019-01-12T12:43:31.909Z,98.00
2019-01-12T12:44:31.879Z,97.80
2019-01-12T12:45:31.895Z,98.00
2019-01-12T12:46:31.861Z,97.90
2019-01-12T12:47:31.849Z,97.90
2019-01-12T12:48:31.859Z,98.21
2019-01-12T12:49:31.837Z,98.83
2019-01-12T12:50:31.846Z,98.73
2019-01-12T12:51:31.806Z,98.11
2019-01-12T12:52:31.790Z,98.00